createdAt,value
2017-02-11T00:01:05.531Z,-3.75
2017-02-11T00:02:16.203Z,-3.68
2017-02-11T00:03:26.870Z,-3.81
2017-02-11T00:04:37.539Z,-3.74
2017-02-11T00:05:48.210Z,-3.75
2017-02-11T00:06:58.875Z,-3.69
2017-02-11T00:08:09.540Z,-3.71
2017-02-11T00:09:19.814Z,-3.74
2017-02-11T00:10:30.482Z,-3.81
2017-02-11T00:11:41.165Z,-3.74
2017-02-11T00:12:51.433Z,-3.75
2017-02-11T00:14:02.097Z,-3.75
2017-02-11T00:15:12.761Z,-3.83
2017-02-11T00:16:23.425Z,-3.77
2017-02-11T00:17:34.095Z,-3.81
2017-02-11T00:18:44.768Z,-3.85
2017-02-11T00:19:55.436Z,-3.87
2017-02-11T00:21:06.111Z,-3.85
2017-02-11T00:22:16.788Z,-3.9
2017-02-11T00:23:27.460Z,-3.85
2017-02-11T00:24:38.136Z,-3.88
2017-02-11T00:25:48.801Z,-3.85
2017-02-11T00:26:59.464Z,-3.83
2017-02-11T00:28:10.129Z,-3.88
2017-02-11T00:29:20.792Z,-3.95
2017-02-11T00:30:31.458Z,-3.85
2017-02-11T00:31:42.122Z,-3.85
2017-02-11T00:32:52.787Z,-3.81
2017-02-11T00:34:03.453Z,-3.74
2017-02-11T00:35:14.116Z,-3.77
2017-02-11T00:36:24.780Z,-3.84
2017-02-11T00:37:35.448Z,-3.84
2017-02-11T00:38:46.126Z,-3.8
2017-02-11T00:39:56.792Z,-3.87
2017-02-11T00:41:07.808Z,-3.87
2017-02-11T00:42:18.477Z,-3.81
2017-02-11T00:43:29.143Z,-3.84
2017-02-11T00:44:39.802Z,-3.9
2017-02-11T00:45:50.071Z,-3.78
2017-02-11T00:47:00.742Z,-3.77
2017-02-11T00:48:11.402Z,-3.78
2017-02-11T00:49:21.675Z,-3.77
2017-02-11T00:50:32.338Z,-3.75
2017-02-11T00:51:43.004Z,-3.69
2017-02-11T00:52:53.668Z,-3.68
2017-02-11T00:54:04.329Z,-3.71
2017-02-11T00:55:14.992Z,-3.68
2017-02-11T00:56:25.656Z,-3.68
2017-02-11T00:57:36.326Z,-3.68
2017-02-11T00:58:46.993Z,-3.68
2017-02-11T00:59:57.684Z,-3.69
2017-02-11T01:01:08.357Z,-3.68
2017-02-11T01:02:18.637Z,-3.71
2017-02-11T01:03:29.307Z,-3.68
2017-02-11T01:04:39.983Z,-3.75
2017-02-11T01:05:50.254Z,-3.69
2017-02-11T01:07:00.923Z,-3.68
2017-02-11T01:08:11.193Z,-3.71
2017-02-11T01:09:21.861Z,-3.69
2017-02-11T01:10:32.140Z,-3.69
2017-02-11T01:11:42.815Z,-3.66
2017-02-11T01:12:53.492Z,-3.65
2017-02-11T01:14:04.162Z,-3.65
2017-02-11T01:15:14.827Z,-3.69
2017-02-11T01:16:25.099Z,-3.61
2017-02-11T01:17:35.770Z,-3.65
2017-02-11T01:18:46.429Z,-3.68
2017-02-11T01:19:57.095Z,-3.68
2017-02-11T01:21:07.761Z,-3.68
2017-02-11T01:22:17.631Z,-3.65
2017-02-11T01:23:28.293Z,-3.69
2017-02-11T01:24:38.562Z,-3.68
2017-02-11T01:25:49.229Z,-3.69
2017-02-11T01:26:59.488Z,-3.68
2017-02-11T01:28:09.755Z,-3.68
2017-02-11T01:29:20.024Z,-3.75
2017-02-11T01:30:30.716Z,-3.77
2017-02-11T01:31:41.383Z,-3.78
2017-02-11T01:32:51.649Z,-3.75
2017-02-11T01:34:02.360Z,-3.81
2017-02-11T01:35:12.633Z,-3.75
2017-02-11T01:36:23.304Z,-3.69
2017-02-11T01:37:33.974Z,-3.8
2017-02-11T01:38:44.637Z,-3.75
2017-02-11T01:39:55.307Z,-3.84
2017-02-11T01:41:05.976Z,-3.71
2017-02-11T01:42:16.638Z,-3.66
2017-02-11T01:43:27.303Z,-3.68
2017-02-11T01:44:37.969Z,-3.74
2017-02-11T01:45:48.734Z,-3.69
2017-02-11T01:46:59.402Z,-3.69
2017-02-11T01:48:09.671Z,-3.69
2017-02-11T01:49:20.351Z,-3.62
2017-02-11T01:50:31.020Z,-3.69
2017-02-11T01:51:41.686Z,-3.64
2017-02-11T01:52:52.352Z,-3.74
2017-02-11T01:54:03.021Z,-3.74
2017-02-11T01:55:13.289Z,-3.69
2017-02-11T01:56:23.563Z,-3.64
2017-02-11T01:57:33.837Z,-3.61
2017-02-11T01:58:44.500Z,-3.58
2017-02-11T01:59:55.172Z,-3.62
2017-02-11T02:01:05.842Z,-3.55
2017-02-11T02:02:16.109Z,-3.61
2017-02-11T02:03:26.773Z,-3.58
2017-02-11T02:04:37.047Z,-3.59
2017-02-11T02:05:47.711Z,-3.62
2017-02-11T02:06:58.372Z,-3.74
2017-02-11T02:08:08.648Z,-3.66
2017-02-11T02:09:19.317Z,-3.69
2017-02-11T02:10:29.985Z,-3.69
2017-02-11T02:11:40.656Z,-3.74
2017-02-11T02:12:51.336Z,-3.77
2017-02-11T02:14:02.010Z,-3.8
2017-02-11T02:15:12.681Z,-3.77
2017-02-11T02:16:23.376Z,-3.94
2017-02-11T02:17:34.041Z,-3.87
2017-02-11T02:18:44.310Z,-3.88
2017-02-11T02:19:54.978Z,-3.81
2017-02-11T02:21:05.657Z,-3.9
2017-02-11T02:22:15.926Z,-3.9
2017-02-11T02:23:26.589Z,-3.83
2017-02-11T02:24:37.260Z,-3.91
2017-02-11T02:25:47.530Z,-3.81
2017-02-11T02:26:58.199Z,-3.95
2017-02-11T02:28:08.070Z,-3.99
2017-02-11T02:29:18.336Z,-3.91
2017-02-11T02:30:28.996Z,-3.91
2017-02-11T02:31:39.663Z,-3.85
2017-02-11T02:32:50.331Z,-3.88
2017-02-11T02:34:01.004Z,-3.9
2017-02-11T02:35:11.669Z,-3.9
2017-02-11T02:36:22.363Z,-3.95
2017-02-11T02:37:33.031Z,-3.94
2017-02-11T02:38:43.704Z,-3.88
2017-02-11T02:39:53.577Z,-3.9
2017-02-11T02:41:04.244Z,-3.95
2017-02-11T02:42:14.918Z,-3.9
2017-02-11T02:43:25.612Z,-3.94
2017-02-11T02:44:36.288Z,-3.91
2017-02-11T02:45:46.970Z,-3.95
2017-02-11T02:46:57.241Z,-3.91
2017-02-11T02:48:07.909Z,-3.87
2017-02-11T02:49:18.179Z,-3.81
2017-02-11T02:50:28.841Z,-3.84
2017-02-11T02:51:39.507Z,-3.85
2017-02-11T02:52:50.176Z,-3.78
2017-02-11T02:54:00.853Z,-3.78
2017-02-11T02:55:11.125Z,-3.74
2017-02-11T02:56:21.803Z,-3.78
2017-02-11T02:57:32.471Z,-3.78
2017-02-11T02:58:43.136Z,-3.77
2017-02-11T02:59:53.801Z,-3.77
2017-02-11T03:01:04.490Z,-3.83
2017-02-11T03:02:15.159Z,-3.88
2017-02-11T03:03:25.434Z,-3.95
2017-02-11T03:04:36.101Z,-3.99
2017-02-11T03:05:46.762Z,-4.02
2017-02-11T03:06:57.430Z,-4.17
2017-02-11T03:08:08.101Z,-4.23
2017-02-11T03:09:18.769Z,-4.24
2017-02-11T03:10:29.447Z,-4.33
2017-02-11T03:11:40.118Z,-4.27
2017-02-11T03:12:50.784Z,-4.26
2017-02-11T03:14:01.223Z,-4.3
2017-02-11T03:15:11.493Z,-4.34
2017-02-11T03:16:21.791Z,-4.31
2017-02-11T03:17:32.068Z,-4.31
2017-02-11T03:18:42.767Z,-4.33
2017-02-11T03:19:53.738Z,-4.27
2017-02-11T03:21:04.015Z,-4.24
2017-02-11T03:22:14.291Z,-4.34
2017-02-11T03:23:24.989Z,-4.38
2017-02-11T03:24:35.658Z,-4.38
2017-02-11T03:25:46.341Z,-4.38
2017-02-11T03:26:57.002Z,-4.49
2017-02-11T03:28:06.872Z,-4.55
2017-02-11T03:29:17.142Z,-4.58
2017-02-11T03:30:27.807Z,-4.59
2017-02-11T03:31:38.472Z,-4.56
2017-02-11T03:32:49.137Z,-4.56
2017-02-11T03:33:59.799Z,-4.58
2017-02-11T03:35:10.499Z,-4.62
2017-02-11T03:36:21.162Z,-4.63
2017-02-11T03:37:31.828Z,-4.61
2017-02-11T03:38:42.495Z,-4.7
2017-02-11T03:39:53.163Z,-4.74
2017-02-11T03:41:03.833Z,-4.76
2017-02-11T03:42:14.498Z,-4.74
2017-02-11T03:43:25.161Z,-4.8
2017-02-11T03:44:35.829Z,-4.81
2017-02-11T03:45:46.503Z,-4.73
2017-02-11T03:46:57.173Z,-4.7
2017-02-11T03:48:07.835Z,-4.87
2017-02-11T03:49:17.321Z,-4.73
2017-02-11T03:50:27.994Z,-4.88
2017-02-11T03:51:38.664Z,-4.81
2017-02-11T03:52:49.334Z,-4.87
2017-02-11T03:54:00.007Z,-4.87
2017-02-11T03:55:10.678Z,-4.81
2017-02-11T03:56:21.343Z,-4.87
2017-02-11T03:57:32.011Z,-4.84
2017-02-11T03:58:42.680Z,-4.87
2017-02-11T03:59:53.346Z,-4.87
2017-02-11T04:01:04.018Z,-4.84
2017-02-11T04:02:14.680Z,-4.79
2017-02-11T04:03:25.341Z,-4.84
2017-02-11T04:04:36.007Z,-4.84
2017-02-11T04:05:46.671Z,-4.84
2017-02-11T04:06:57.343Z,-4.87
2017-02-11T04:08:08.012Z,-4.83
2017-02-11T04:09:18.700Z,-4.81
2017-02-11T04:10:28.975Z,-4.8
2017-02-11T04:11:39.639Z,-4.9
2017-02-11T04:12:50.312Z,-4.87
2017-02-11T04:14:00.980Z,-4.84
2017-02-11T04:15:11.651Z,-4.87
2017-02-11T04:16:21.921Z,-4.88
2017-02-11T04:17:32.586Z,-4.79
2017-02-11T04:18:43.254Z,-4.88
2017-02-11T04:19:53.920Z,-4.83
2017-02-11T04:21:04.590Z,-4.73
2017-02-11T04:22:14.857Z,-4.8
2017-02-11T04:23:25.513Z,-4.87
2017-02-11T04:24:36.178Z,-4.8
2017-02-11T04:25:46.846Z,-4.77
2017-02-11T04:26:57.517Z,-4.81
2017-02-11T04:28:07.787Z,-4.7
2017-02-11T04:29:18.057Z,-4.76
2017-02-11T04:30:28.725Z,-4.84
2017-02-11T04:31:39.394Z,-4.71
2017-02-11T04:32:50.066Z,-4.83
2017-02-11T04:34:00.753Z,-4.83
2017-02-11T04:35:11.422Z,-4.76
2017-02-11T04:36:22.093Z,-4.81
2017-02-11T04:37:32.757Z,-4.76
2017-02-11T04:38:43.448Z,-4.81
2017-02-11T04:39:54.112Z,-4.77
2017-02-11T04:41:04.778Z,-4.76
2017-02-11T04:42:15.438Z,-4.77
2017-02-11T04:43:26.105Z,-4.84
2017-02-11T04:44:36.771Z,-4.88
2017-02-11T04:45:47.433Z,-4.8
2017-02-11T04:46:58.096Z,-4.88
2017-02-11T04:48:08.770Z,-4.79
2017-02-11T04:49:18.246Z,-4.8
2017-02-11T04:50:28.911Z,-4.84
2017-02-11T04:51:39.579Z,-4.8
2017-02-11T04:52:50.248Z,-4.71
2017-02-11T04:54:00.915Z,-4.73
2017-02-11T04:55:11.590Z,-4.73
2017-02-11T04:56:22.259Z,-4.77
2017-02-11T04:57:32.936Z,-4.63
2017-02-11T04:58:43.600Z,-4.71
2017-02-11T04:59:54.264Z,-4.62
2017-02-11T05:01:04.937Z,-4.63
2017-02-11T05:02:14.807Z,-4.58
2017-02-11T05:03:25.473Z,-4.58
2017-02-11T05:04:36.150Z,-4.53
2017-02-11T05:05:46.821Z,-4.53
2017-02-11T05:06:57.522Z,-4.59
2017-02-11T05:08:08.192Z,-4.56
2017-02-11T05:09:18.862Z,-4.56
2017-02-11T05:10:29.521Z,-4.58
2017-02-11T05:11:39.786Z,-4.58
2017-02-11T05:12:50.450Z,-4.51
2017-02-11T05:14:01.122Z,-4.51
2017-02-11T05:15:11.792Z,-4.59
2017-02-11T05:16:22.457Z,-4.53
2017-02-11T05:17:32.725Z,-4.47
2017-02-11T05:18:43.392Z,-4.41
2017-02-11T05:19:54.056Z,-4.44
2017-02-11T05:21:04.727Z,-4.41
2017-02-11T05:22:14.997Z,-4.4
2017-02-11T05:23:25.661Z,-4.4
2017-02-11T05:24:36.323Z,-4.42
2017-02-11T05:25:46.984Z,-4.45
2017-02-11T05:26:57.652Z,-4.45
2017-02-11T05:28:08.317Z,-4.44
2017-02-11T05:29:18.980Z,-4.41
2017-02-11T05:30:29.686Z,-4.4
2017-02-11T05:31:40.391Z,-4.37
2017-02-11T05:32:51.058Z,-4.42
2017-02-11T05:34:01.724Z,-4.35
2017-02-11T05:35:11.987Z,-4.37
2017-02-11T05:36:22.664Z,-4.41
2017-02-11T05:37:33.365Z,-4.49
2017-02-11T05:38:44.031Z,-4.44
2017-02-11T05:39:53.903Z,-4.42
2017-02-11T05:41:04.575Z,-4.38
2017-02-11T05:42:14.845Z,-4.38
2017-02-11T05:43:25.513Z,-4.4
2017-02-11T05:44:36.176Z,-4.41
2017-02-11T05:45:46.848Z,-4.4
2017-02-11T05:46:57.542Z,-4.44
2017-02-11T05:48:08.208Z,-4.38
2017-02-11T05:49:18.885Z,-4.44
2017-02-11T05:50:29.549Z,-4.41
2017-02-11T05:51:40.207Z,-4.41
2017-02-11T05:52:50.875Z,-4.45
2017-02-11T05:54:01.545Z,-4.4
2017-02-11T05:55:12.210Z,-4.44
2017-02-11T05:56:22.883Z,-4.41
2017-02-11T05:57:33.548Z,-4.45
2017-02-11T05:58:44.215Z,-4.45
2017-02-11T05:59:54.883Z,-4.45
2017-02-11T06:01:05.553Z,-4.44
2017-02-11T06:02:15.424Z,-4.47
2017-02-11T06:03:26.090Z,-4.47
2017-02-11T06:04:36.764Z,-4.45
2017-02-11T06:05:47.437Z,-4.44
2017-02-11T06:06:58.104Z,-4.45
2017-02-11T06:08:08.779Z,-4.47
2017-02-11T06:09:19.455Z,-4.47
2017-02-11T06:10:30.143Z,-4.42
2017-02-11T06:11:40.808Z,-4.42
2017-02-11T06:12:51.073Z,-4.42
2017-02-11T06:14:01.738Z,-4.4
2017-02-11T06:15:12.404Z,-4.41
2017-02-11T06:16:23.073Z,-4.42
2017-02-11T06:17:33.743Z,-4.44
2017-02-11T06:18:44.405Z,-4.41
2017-02-11T06:19:55.073Z,-4.38
2017-02-11T06:21:05.737Z,-4.45
2017-02-11T06:22:16.013Z,-4.42
2017-02-11T06:23:26.676Z,-4.38
2017-02-11T06:24:36.950Z,-4.42
2017-02-11T06:25:47.618Z,-4.4
2017-02-11T06:26:58.287Z,-4.31
2017-02-11T06:28:08.957Z,-4.42
2017-02-11T06:29:19.622Z,-4.3
2017-02-11T06:30:30.294Z,-4.3
2017-02-11T06:31:40.961Z,-4.34
2017-02-11T06:32:51.240Z,-4.26
2017-02-11T06:34:01.908Z,-4.3
2017-02-11T06:35:12.574Z,-4.3
2017-02-11T06:36:22.842Z,-4.3
2017-02-11T06:37:33.520Z,-4.26
2017-02-11T06:38:44.187Z,-4.33
2017-02-11T06:39:54.855Z,-4.33
2017-02-11T06:41:05.520Z,-4.33
2017-02-11T06:42:15.399Z,-4.37
2017-02-11T06:43:26.067Z,-4.31
2017-02-11T06:44:36.739Z,-4.27
2017-02-11T06:45:47.405Z,-4.26
2017-02-11T06:46:58.065Z,-4.31
2017-02-11T06:48:08.728Z,-4.33
2017-02-11T06:49:19.002Z,-4.31
2017-02-11T06:50:29.672Z,-4.34
2017-02-11T06:51:40.344Z,-4.31
2017-02-11T06:52:51.014Z,-4.24
2017-02-11T06:54:01.689Z,-4.33
2017-02-11T06:55:12.351Z,-4.33
2017-02-11T06:56:22.618Z,-4.35
2017-02-11T06:57:33.286Z,-4.42
2017-02-11T06:58:43.954Z,-4.41
2017-02-11T06:59:54.638Z,-4.42
2017-02-11T07:01:05.314Z,-4.41
2017-02-11T07:02:15.192Z,-4.53
2017-02-11T07:03:25.856Z,-4.47
2017-02-11T07:04:36.534Z,-4.51
2017-02-11T07:05:47.205Z,-4.42
2017-02-11T07:06:57.868Z,-4.59
2017-02-11T07:08:08.534Z,-4.61
2017-02-11T07:09:19.205Z,-4.55
2017-02-11T07:10:29.477Z,-4.56
2017-02-11T07:11:40.166Z,-4.56
2017-02-11T07:12:50.835Z,-4.55
2017-02-11T07:14:01.494Z,-4.59
2017-02-11T07:15:12.164Z,-4.55
2017-02-11T07:16:22.433Z,-4.55
2017-02-11T07:17:32.731Z,-4.62
2017-02-11T07:18:43.403Z,-4.58
2017-02-11T07:19:54.075Z,-4.59
2017-02-11T07:21:04.740Z,-4.61
2017-02-11T07:22:15.010Z,-4.58
2017-02-11T07:23:25.672Z,-4.56
2017-02-11T07:24:36.360Z,-4.61
2017-02-11T07:25:47.022Z,-4.58
2017-02-11T07:26:57.689Z,-4.56
2017-02-11T07:28:08.409Z,-4.53
2017-02-11T07:29:18.681Z,-4.58
2017-02-11T07:30:28.949Z,-4.58
2017-02-11T07:31:39.613Z,-4.52
2017-02-11T07:32:50.277Z,-4.52
2017-02-11T07:34:00.944Z,-4.58
2017-02-11T07:35:11.615Z,-4.61
2017-02-11T07:36:22.280Z,-4.58
2017-02-11T07:37:32.948Z,-4.49
2017-02-11T07:38:43.611Z,-4.55
2017-02-11T07:39:54.277Z,-4.47
2017-02-11T07:41:04.938Z,-4.49
2017-02-11T07:42:15.206Z,-4.4
2017-02-11T07:43:25.871Z,-4.4
2017-02-11T07:44:36.534Z,-4.41
2017-02-11T07:45:47.203Z,-4.38
2017-02-11T07:46:57.868Z,-4.45
2017-02-11T07:48:08.538Z,-4.41
2017-02-11T07:49:18.812Z,-4.33
2017-02-11T07:50:29.480Z,-4.27
2017-02-11T07:51:40.145Z,-4.37
2017-02-11T07:52:50.811Z,-4.27
2017-02-11T07:54:01.480Z,-4.33
2017-02-11T07:55:12.156Z,-4.26
2017-02-11T07:56:22.828Z,-4.2
2017-02-11T07:57:33.487Z,-4.26
2017-02-11T07:58:44.154Z,-4.16
2017-02-11T07:59:54.819Z,-4.19
2017-02-11T08:01:05.484Z,-4.19
2017-02-11T08:02:15.746Z,-4.12
2017-02-11T08:03:26.408Z,-4.13
2017-02-11T08:04:37.077Z,-4.16
2017-02-11T08:05:47.752Z,-4.13
2017-02-11T08:06:58.423Z,-4.04
2017-02-11T08:08:09.086Z,-4.09
2017-02-11T08:09:19.768Z,-4.01
2017-02-11T08:10:30.437Z,-4.02
2017-02-11T08:11:41.113Z,-3.98
2017-02-11T08:12:51.792Z,-3.88
2017-02-11T08:14:02.456Z,-3.95
2017-02-11T08:15:13.126Z,-3.84
2017-02-11T08:16:23.394Z,-3.94
2017-02-11T08:17:34.060Z,-3.85
2017-02-11T08:18:44.742Z,-3.84
2017-02-11T08:19:55.414Z,-3.8
2017-02-11T08:21:06.104Z,-3.85
2017-02-11T08:22:16.775Z,-3.87
2017-02-11T08:23:27.449Z,-3.84
2017-02-11T08:24:38.122Z,-3.96
2017-02-11T08:25:48.785Z,-3.9
2017-02-11T08:26:59.449Z,-3.75
2017-02-11T08:28:10.137Z,-3.83
2017-02-11T08:29:20.408Z,-3.75
2017-02-11T08:30:31.075Z,-3.68
2017-02-11T08:31:41.741Z,-3.75
2017-02-11T08:32:52.407Z,-3.59
2017-02-11T08:34:03.080Z,-3.56
2017-02-11T08:35:13.355Z,-3.61
2017-02-11T08:36:24.062Z,-3.43
2017-02-11T08:37:34.732Z,-3.47
2017-02-11T08:38:45.409Z,-3.43
2017-02-11T08:39:56.112Z,-3.37
2017-02-11T08:41:06.806Z,-3.36
2017-02-11T08:42:17.475Z,-3.32
2017-02-11T08:43:27.750Z,-3.26
2017-02-11T08:44:38.421Z,-3.2
2017-02-11T08:45:49.093Z,-3.17
2017-02-11T08:46:59.775Z,-3.15
2017-02-11T08:48:10.469Z,-3.11
2017-02-11T08:49:21.177Z,-3.08
2017-02-11T08:50:31.844Z,-3.08
2017-02-11T08:51:42.519Z,-2.99
2017-02-11T08:52:53.190Z,-2.94
2017-02-11T08:54:03.866Z,-2.86
2017-02-11T08:55:14.542Z,-2.89
2017-02-11T08:56:25.203Z,-2.84
2017-02-11T08:57:35.863Z,-2.83
2017-02-11T08:58:46.532Z,-2.91
2017-02-11T08:59:57.202Z,-2.84
2017-02-11T09:01:07.875Z,-2.9
2017-02-11T09:02:18.148Z,-2.9
2017-02-11T09:03:28.827Z,-2.84
2017-02-11T09:04:39.496Z,-2.83
2017-02-11T09:05:50.171Z,-2.89
2017-02-11T09:07:00.845Z,-2.89
2017-02-11T09:08:11.596Z,-2.93
2017-02-11T09:09:22.267Z,-2.86
2017-02-11T09:10:32.947Z,-2.91
2017-02-11T09:11:43.620Z,-2.83
2017-02-11T09:12:54.294Z,-2.89
2017-02-11T09:14:04.963Z,-2.78
2017-02-11T09:15:14.837Z,-2.86
2017-02-11T09:16:25.111Z,-2.8
2017-02-11T09:17:35.383Z,-2.73
2017-02-11T09:18:45.652Z,-2.68
2017-02-11T09:19:56.320Z,-2.66
2017-02-11T09:21:06.994Z,-2.69
2017-02-11T09:22:17.267Z,-2.55
2017-02-11T09:23:27.936Z,-2.51
2017-02-11T09:24:38.614Z,-2.48
2017-02-11T09:25:49.288Z,-2.68
2017-02-11T09:26:59.986Z,-2.63
2017-02-11T09:28:10.661Z,-2.7
2017-02-11T09:29:20.931Z,-2.73
2017-02-11T09:30:31.598Z,-2.8
2017-02-11T09:31:42.262Z,-2.86
2017-02-11T09:32:52.937Z,-2.86
2017-02-11T09:34:03.608Z,-2.87
2017-02-11T09:35:13.882Z,-2.89
2017-02-11T09:36:24.153Z,-2.68
2017-02-11T09:37:34.836Z,-2.63
2017-02-11T09:38:45.508Z,-2.62
2017-02-11T09:39:56.175Z,-2.57
2017-02-11T09:41:06.843Z,-2.54
2017-02-11T09:42:17.511Z,-2.52
2017-02-11T09:43:28.181Z,-2.39
2017-02-11T09:44:38.846Z,-2.44
2017-02-11T09:45:49.514Z,-2.47
2017-02-11T09:46:59.788Z,-2.42
2017-02-11T09:48:09.666Z,-2.33
2017-02-11T09:49:20.337Z,-2.32
2017-02-11T09:50:30.607Z,-2.36
2017-02-11T09:51:41.275Z,-2.32
2017-02-11T09:52:51.549Z,-2.36
2017-02-11T09:54:02.228Z,-2.4
2017-02-11T09:55:12.149Z,-2.32
2017-02-11T09:56:22.819Z,-2.33
2017-02-11T09:57:33.488Z,-2.28
2017-02-11T09:58:44.158Z,-2.33
2017-02-11T09:59:59.445Z,-2.37
2017-02-11T10:01:10.114Z,-2.36
2017-02-11T10:02:20.388Z,-2.36
2017-02-11T10:03:30.658Z,-2.36
2017-02-11T10:04:41.325Z,-2.2
2017-02-11T10:05:51.600Z,-2.23
2017-02-11T10:07:02.274Z,-2.13
2017-02-11T10:08:12.944Z,-2.05
2017-02-11T10:09:23.622Z,-2.05
2017-02-11T10:10:34.288Z,-1.9
2017-02-11T10:11:44.968Z,-1.89
2017-02-11T10:12:55.641Z,-1.87
2017-02-11T10:14:06.315Z,-1.86
2017-02-11T10:15:16.988Z,-1.79
2017-02-11T10:16:27.660Z,-1.74
2017-02-11T10:17:37.947Z,-1.71
2017-02-11T10:18:48.277Z,-1.72
2017-02-11T10:19:58.585Z,-1.75
2017-02-11T10:21:09.261Z,-1.76
2017-02-11T10:22:19.948Z,-1.68
2017-02-11T10:23:30.624Z,-1.61
2017-02-11T10:24:41.296Z,-1.68
2017-02-11T10:25:51.985Z,-1.61
2017-02-11T10:27:02.663Z,-1.64
2017-02-11T10:28:13.383Z,-1.48
2017-02-11T10:29:24.065Z,-1.39
2017-02-11T10:30:34.347Z,-1.3
2017-02-11T10:31:45.017Z,-1.32
2017-02-11T10:32:55.684Z,-1.21
2017-02-11T10:34:06.362Z,-1.17
2017-02-11T10:35:17.036Z,-1.3
2017-02-11T10:36:27.312Z,-1.29
2017-02-11T10:37:37.985Z,-1.35
2017-02-11T10:38:48.258Z,-1.24
2017-02-11T10:39:58.140Z,-1.32
2017-02-11T10:41:08.813Z,-1.29
2017-02-11T10:42:19.491Z,-1.21
2017-02-11T10:43:30.165Z,-1.17
2017-02-11T10:44:40.834Z,-1.06
2017-02-11T10:45:51.116Z,-1.01
2017-02-11T10:47:01.000Z,-0.94
2017-02-11T10:48:11.675Z,-0.89
2017-02-11T10:49:21.948Z,-0.94
2017-02-11T10:50:32.627Z,-0.93
2017-02-11T10:51:42.900Z,-0.89
2017-02-11T10:52:53.570Z,-0.91
2017-02-11T10:54:04.241Z,-0.84
2017-02-11T10:55:14.907Z,-0.8
2017-02-11T10:56:25.574Z,-0.89
2017-02-11T10:57:36.243Z,-0.91
2017-02-11T10:58:46.912Z,-0.84
2017-02-11T10:59:57.613Z,-0.89
2017-02-11T11:01:08.282Z,-0.84
2017-02-11T11:02:18.956Z,-0.74
2017-02-11T11:03:29.630Z,-0.74
2017-02-11T11:04:40.293Z,-0.72
2017-02-11T11:05:50.967Z,-0.69
2017-02-11T11:07:01.640Z,-0.63
2017-02-11T11:08:12.306Z,-0.67
2017-02-11T11:09:22.576Z,-0.54
2017-02-11T11:10:33.252Z,-0.53
2017-02-11T11:11:43.933Z,-0.51
2017-02-11T11:12:54.601Z,-0.51
2017-02-11T11:14:05.276Z,-0.51
2017-02-11T11:15:14.755Z,-0.44
2017-02-11T11:16:25.428Z,-0.36
2017-02-11T11:17:36.128Z,-0.36
2017-02-11T11:18:46.799Z,-0.3
2017-02-11T11:19:57.473Z,-0.28
2017-02-11T11:21:08.144Z,-0.3
2017-02-11T11:22:18.415Z,-0.3
2017-02-11T11:23:29.083Z,-0.2
2017-02-11T11:24:39.752Z,-0.31
2017-02-11T11:25:50.424Z,-0.27
2017-02-11T11:27:01.093Z,-0.33
2017-02-11T11:28:11.764Z,-0.3
2017-02-11T11:29:22.433Z,-0.27
2017-02-11T11:30:32.700Z,-0.23
2017-02-11T11:31:43.007Z,-0.33
2017-02-11T11:32:53.683Z,-0.31
2017-02-11T11:34:03.966Z,-0.35
2017-02-11T11:35:14.635Z,-0.27
2017-02-11T11:36:25.348Z,-0.3
2017-02-11T11:37:35.622Z,-0.2
2017-02-11T11:38:46.293Z,-0.17
2017-02-11T11:39:56.992Z,-0.03
2017-02-11T11:41:07.659Z,-0.02
2017-02-11T11:42:17.535Z,0.02
2017-02-11T11:43:28.212Z,0.01
2017-02-11T11:44:38.883Z,0.09
2017-02-11T11:45:49.551Z,0.19
2017-02-11T11:47:00.227Z,0.23
2017-02-11T11:48:10.543Z,0.23
2017-02-11T11:49:21.211Z,0.29
2017-02-11T11:50:31.483Z,0.34
2017-02-11T11:51:41.758Z,0.37
2017-02-11T11:52:52.429Z,0.34
2017-02-11T11:54:02.702Z,0.4
2017-02-11T11:55:13.373Z,0.42
2017-02-11T11:56:23.652Z,0.42
2017-02-11T11:57:34.327Z,0.39
2017-02-11T11:58:44.992Z,0.36
2017-02-11T11:59:55.665Z,0.36
2017-02-11T12:01:06.349Z,0.31
2017-02-11T12:02:17.020Z,0.42
2017-02-11T12:03:27.291Z,0.48
2017-02-11T12:04:37.568Z,0.48
2017-02-11T12:05:48.239Z,0.55
2017-02-11T12:06:58.906Z,0.51
2017-02-11T12:08:09.579Z,0.48
2017-02-11T12:09:20.251Z,0.64
2017-02-11T12:10:30.528Z,0.59
2017-02-11T12:11:41.197Z,0.51
2017-02-11T12:12:51.872Z,0.66
2017-02-11T12:14:02.538Z,0.59
2017-02-11T12:15:12.410Z,0.59
2017-02-11T12:16:23.081Z,0.61
2017-02-11T12:17:33.758Z,0.55
2017-02-11T12:18:44.031Z,0.56
2017-02-11T12:19:54.707Z,0.58
2017-02-11T12:21:05.383Z,0.67
2017-02-11T12:22:15.660Z,0.76
2017-02-11T12:23:25.932Z,0.74
2017-02-11T12:24:36.213Z,0.92
2017-02-11T12:25:46.492Z,1.09
2017-02-11T12:26:57.206Z,1.52
2017-02-11T12:28:07.909Z,1.56
2017-02-11T12:29:17.789Z,1.78
2017-02-11T12:30:28.461Z,1.88
2017-02-11T12:31:38.737Z,2.21
2017-02-11T12:32:49.408Z,2.5
2017-02-11T12:34:00.076Z,2.52
2017-02-11T12:35:10.356Z,2.5
2017-02-11T12:36:21.033Z,2.65
2017-02-11T12:37:31.711Z,2.55
2017-02-11T12:38:42.385Z,2.51
2017-02-11T12:39:52.659Z,2.55
2017-02-11T12:41:03.332Z,2.61
2017-02-11T12:42:13.212Z,2.59
2017-02-11T12:43:23.891Z,2.57
2017-02-11T12:44:34.165Z,2.41
2017-02-11T12:45:44.836Z,2.25
2017-02-11T12:46:55.516Z,2.12
2017-02-11T12:48:06.196Z,2.08
2017-02-11T12:49:16.469Z,2.26
2017-02-11T12:50:27.140Z,2.52
2017-02-11T12:51:37.415Z,2.76
2017-02-11T12:52:48.088Z,2.73
2017-02-11T12:53:58.765Z,2.73
2017-02-11T12:55:08.647Z,2.64
2017-02-11T12:56:19.318Z,2.61
2017-02-11T12:57:29.597Z,2.94
2017-02-11T12:58:40.272Z,3.46
2017-02-11T12:59:50.945Z,3.78
2017-02-11T13:01:01.617Z,4.36
2017-02-11T13:02:12.288Z,4.76
2017-02-11T13:03:22.565Z,5.02
2017-02-11T13:04:32.847Z,5.26
2017-02-11T13:05:43.521Z,5.12
2017-02-11T13:06:54.204Z,5.13
2017-02-11T13:08:04.879Z,5.47
2017-02-11T13:09:15.557Z,5.7
2017-02-11T13:10:26.233Z,6.01
2017-02-11T13:11:36.511Z,6.29
2017-02-11T13:12:47.193Z,6.57
2017-02-11T13:13:57.471Z,6.64
2017-02-11T13:15:08.148Z,6.71
2017-02-11T13:16:18.034Z,6.56
2017-02-11T13:17:28.713Z,6.59
2017-02-11T13:18:39.391Z,6.46
2017-02-11T13:19:50.066Z,6.29
2017-02-11T13:21:00.350Z,6.02
2017-02-11T13:22:11.030Z,5.83
2017-02-11T13:23:21.717Z,5.64
2017-02-11T13:24:32.394Z,5.54
2017-02-11T13:25:43.173Z,5.28
2017-02-11T13:26:53.898Z,5.2
2017-02-11T13:28:04.578Z,5.22
2017-02-11T13:29:15.291Z,5.1
2017-02-11T13:30:26.028Z,4.98
2017-02-11T13:31:36.726Z,4.97
2017-02-11T13:32:47.407Z,4.84
2017-02-11T13:33:58.101Z,4.64
2017-02-11T13:35:08.823Z,4.49
2017-02-11T13:36:19.507Z,4.31
2017-02-11T13:37:29.788Z,4.02
2017-02-11T13:38:40.472Z,3.78
2017-02-11T13:39:51.159Z,3.67
2017-02-11T13:41:01.839Z,3.49
2017-02-11T13:42:12.124Z,3.31
2017-02-11T13:43:22.406Z,3.24
2017-02-11T13:44:33.085Z,3.33
2017-02-11T13:45:43.769Z,3.33
2017-02-11T13:46:54.514Z,3.41
2017-02-11T13:48:05.222Z,3.36
2017-02-11T13:49:15.513Z,3.43
2017-02-11T13:50:25.793Z,3.43
2017-02-11T13:51:36.474Z,3.31
2017-02-11T13:52:47.152Z,3.33
2017-02-11T13:53:57.828Z,3.21
2017-02-11T13:55:08.106Z,3.13
2017-02-11T13:56:17.993Z,3.06
2017-02-11T13:57:28.673Z,2.94
2017-02-11T13:58:39.349Z,2.76
2017-02-11T13:59:49.623Z,2.65
2017-02-11T14:01:00.365Z,2.61
2017-02-11T14:02:11.040Z,2.39
2017-02-11T14:03:21.311Z,2.25
2017-02-11T14:04:31.983Z,2.18
2017-02-11T14:05:42.258Z,2.21
2017-02-11T14:06:53.281Z,2.34
2017-02-11T14:08:03.953Z,2.34
2017-02-11T14:09:14.231Z,2.52
2017-02-11T14:10:24.532Z,2.57
2017-02-11T14:11:35.209Z,2.54
2017-02-11T14:12:45.879Z,2.39
2017-02-11T14:13:56.551Z,2.26
2017-02-11T14:15:07.227Z,2.1
2017-02-11T14:16:17.507Z,1.85
2017-02-11T14:17:28.183Z,1.7
2017-02-11T14:18:38.856Z,1.58
2017-02-11T14:19:49.532Z,1.46
2017-02-11T14:21:00.204Z,1.38
2017-02-11T14:22:10.481Z,1.25
2017-02-11T14:23:21.159Z,1.2
2017-02-11T14:24:31.436Z,1.09
2017-02-11T14:25:42.107Z,0.94
2017-02-11T14:26:52.786Z,0.94
2017-02-11T14:28:03.454Z,0.78
2017-02-11T14:29:14.128Z,0.71
2017-02-11T14:30:24.789Z,0.64
2017-02-11T14:31:35.062Z,0.64
2017-02-11T14:32:45.731Z,0.47
2017-02-11T14:33:56.403Z,0.33
2017-02-11T14:35:07.074Z,0.36
2017-02-11T14:36:17.379Z,0.26
2017-02-11T14:37:28.051Z,0.09
2017-02-11T14:38:38.721Z,0.02
2017-02-11T14:39:49.392Z,-0.05
2017-02-11T14:41:00.107Z,-0.05
2017-02-11T14:42:10.777Z,-0.18
2017-02-11T14:43:21.452Z,-0.35
2017-02-11T14:44:31.772Z,-0.48
2017-02-11T14:45:42.441Z,-0.53
2017-02-11T14:46:53.115Z,-0.56
2017-02-11T14:48:03.779Z,-0.7
2017-02-11T14:49:14.447Z,-0.74
2017-02-11T14:50:25.126Z,-0.97
2017-02-11T14:51:35.796Z,-1.03
2017-02-11T14:52:46.458Z,-1.11
2017-02-11T14:53:57.123Z,-1.14
2017-02-11T14:55:07.403Z,-1.45
2017-02-11T14:56:18.073Z,-1.42
2017-02-11T14:57:28.345Z,-1.48
2017-02-11T14:58:39.053Z,-1.63
2017-02-11T14:59:49.721Z,-1.82
2017-02-11T15:01:00.396Z,-1.9
2017-02-11T15:02:10.271Z,-2.04
2017-02-11T15:03:20.146Z,-2.17
2017-02-11T15:04:30.811Z,-2.34
2017-02-11T15:05:41.081Z,-2.37
2017-02-11T15:06:51.749Z,-2.51
2017-02-11T15:08:02.424Z,-2.58
2017-02-11T15:09:13.095Z,-2.69
2017-02-11T15:10:23.369Z,-2.63
2017-02-11T15:11:33.641Z,-2.69
2017-02-11T15:12:43.911Z,-2.7
2017-02-11T15:13:54.583Z,-2.76
2017-02-11T15:15:04.860Z,-2.7
2017-02-11T15:16:15.524Z,-2.69
2017-02-11T15:17:25.798Z,-2.72